TimeCST,TemperatureF,Dew PointF,Humidity,Sea Level PressureIn,VisibilityMPH,Wind Direction,Wind SpeedMPH,Gust SpeedMPH,PrecipitationIn,Events,Conditions,WindDirDegrees,DateUTC
12:53 AM,30.0,19.0,64,30.18,10.0,North,9.2,-,N/A,,Scattered Clouds,350,2013-02-16 06:53:00
1:53 AM,28.0,18.0,66,30.17,10.0,North,5.8,-,N/A,,Scattered Clouds,360,2013-02-16 07:53:00
2:53 AM,28.0,18.0,66,30.15,10.0,North,5.8,-,N/A,,Scattered Clouds,350,2013-02-16 08:53:00
3:53 AM,27.0,18.0,69,30.15,10.0,Calm,Calm,-,N/A,,Mostly Cloudy,0,2013-02-16 09:53:00
4:53 AM,25.0,18.0,75,30.15,10.0,WNW,3.5,-,N/A,,Mostly Cloudy,300,2013-02-16 10:53:00
5:53 AM,26.1,18.0,71,30.16,10.0,NW,4.6,-,N/A,,Scattered Clouds,310,2013-02-16 11:53:00
6:53 AM,25.0,18.0,75,30.16,10.0,WNW,4.6,-,N/A,,Scattered Clouds,290,2013-02-16 12:53:00
7:53 AM,30.0,19.9,66,30.17,10.0,WNW,5.8,-,N/A,,Scattered Clouds,290,2013-02-16 13:53:00
8:53 AM,33.1,19.0,56,30.18,10.0,NNW,5.8,-,N/A,,Mostly Cloudy,330,2013-02-16 14:53:00
9:53 AM,35.1,18.0,50,30.18,10.0,NW,11.5,-,N/A,,Mostly Cloudy,320,2013-02-16 15:53:00
10:53 AM,35.1,18.0,50,30.19,10.0,NW,9.2,16.1,N/A,,Mostly Cloudy,320,2013-02-16 16:53:00
11:53 AM,35.1,15.1,44,30.17,10.0,NW,8.1,-,N/A,,Overcast,310,2013-02-16 17:53:00
12:53 PM,37.0,14.0,39,30.15,10.0,NW,13.8,19.6,N/A,,Mostly Cloudy,310,2013-02-16 18:53:00
1:53 PM,37.0,12.9,37,30.14,10.0,NW,11.5,-,N/A,,Mostly Cloudy,320,2013-02-16 19:53:00
2:53 PM,39.9,10.0,29,30.14,10.0,NW,18.4,24.2,N/A,,Mostly Cloudy,320,2013-02-16 20:53:00
3:53 PM,37.9,7.0,28,30.15,10.0,NW,17.3,21.9,N/A,,Mostly Cloudy,310,2013-02-16 21:53:00
4:53 PM,35.1,6.1,30,30.17,10.0,NNW,16.1,23.0,N/A,,Scattered Clouds,340,2013-02-16 22:53:00
5:53 PM,32.0,6.1,34,30.19,10.0,NNW,9.2,-,N/A,,Partly Cloudy,340,2013-02-16 23:53:00
6:53 PM,30.0,6.1,36,30.20,10.0,NNW,5.8,-,N/A,,Clear,340,2013-02-17 00:53:00
7:53 PM,28.9,7.0,40,30.22,10.0,NNW,4.6,-,N/A,,Clear,330,2013-02-17 01:53:00
8:53 PM,28.9,7.0,40,30.22,10.0,Calm,Calm,-,N/A,,Clear,0,2013-02-17 02:53:00
9:53 PM,27.0,8.1,45,30.23,10.0,Calm,Calm,-,N/A,,Clear,0,2013-02-17 03:53:00
10:53 PM,27.0,9.0,47,30.22,10.0,Calm,Calm,-,N/A,,Clear,0,2013-02-17 04:53:00
11:53 PM,24.1,12.0,60,30.22,10.0,Calm,Calm,-,N/A,,Clear,0,2013-02-17 05:53:00